Universal, Indiana
Current Conditions -  °F | °C
As of 1:35 PM on Sunday 21 Dec 2014 (Local Time) from KPRG Reporting Station
Clear Clear  
Wind Chill: 34°   Ceiling: Unl
Heat Index: 39°   Visibility: 7mi
Dew Point: 33°   Wind: 8mph
Humidity: 78%   Direction: 130°SE
Pressure: 30.19"   Gusts: NA
Location:  39.62°N, 87.45°W
Report Text: KPRG 211835Z AUTO 13007KT 7SM CLR 04/00 A3019 RMK AO2 T00400004
Loading
Personal Weather Stations






























Interactive Weather Map New forecast layout! Learn more

10-Day Weather Forecast

Advertisements
Track Severe Weather on mobile